createdAt,value
2022-12-18T00:00:18.891Z,63.70
2022-12-18T00:01:18.917Z,84.90
2022-12-18T00:02:18.881Z,65.30
2022-12-18T00:03:18.938Z,67.80
2022-12-18T00:04:18.893Z,71.60
2022-12-18T00:05:18.849Z,69.70
2022-12-18T00:06:18.853Z,95.60
2022-12-18T00:07:18.850Z,78.30
2022-12-18T00:08:18.831Z,80.00
2022-12-18T00:09:18.837Z,79.00
2022-12-18T00:10:18.809Z,81.00
2022-12-18T00:11:18.819Z,84.00
2022-12-18T00:13:19.813Z,81.40
2022-12-18T00:14:18.788Z,81.90
2022-12-18T00:15:18.804Z,79.80
2022-12-18T00:16:18.812Z,134.80
2022-12-18T00:17:18.780Z,95.20
2022-12-18T00:18:20.730Z,86.90
2022-12-18T00:19:19.889Z,92.80
2022-12-18T00:20:18.748Z,108.90
2022-12-18T00:21:18.735Z,90.00
2022-12-18T00:22:18.745Z,82.40
2022-12-18T00:23:18.744Z,87.90
2022-12-18T00:24:18.731Z,76.50
2022-12-18T00:25:18.718Z,81.60
2022-12-18T00:26:18.708Z,91.60
2022-12-18T00:27:18.708Z,132.70
2022-12-18T00:28:18.722Z,84.70
2022-12-18T00:29:18.708Z,85.10
2022-12-18T00:30:18.704Z,103.50
2022-12-18T00:31:18.763Z,81.80
2022-12-18T00:32:18.676Z,104.70
2022-12-18T00:33:18.676Z,86.00
2022-12-18T00:34:18.706Z,85.70
2022-12-18T00:35:18.659Z,89.10
2022-12-18T00:36:18.655Z,95.10
2022-12-18T00:37:20.360Z,89.20
2022-12-18T00:38:19.644Z,85.60
2022-12-18T00:39:18.648Z,90.20
2022-12-18T00:40:18.640Z,88.40
2022-12-18T00:41:18.617Z,83.80
2022-12-18T00:42:18.620Z,78.10
2022-12-18T00:43:18.608Z,83.50
2022-12-18T00:44:18.605Z,87.50
2022-12-18T00:45:18.604Z,92.80
2022-12-18T00:46:18.681Z,83.50
2022-12-18T00:47:18.574Z,85.90
2022-12-18T00:48:18.570Z,81.50
2022-12-18T00:49:18.584Z,77.70
2022-12-18T00:50:18.558Z,77.20
2022-12-18T00:51:18.553Z,76.30
2022-12-18T00:52:18.554Z,74.70
2022-12-18T00:53:18.538Z,78.20
2022-12-18T00:54:18.553Z,81.60
2022-12-18T00:55:18.533Z,78.80
2022-12-18T00:56:18.524Z,76.50
2022-12-18T00:57:18.511Z,79.40
2022-12-18T00:58:18.517Z,80.00
2022-12-18T00:59:18.534Z,85.30
2022-12-18T01:00:18.497Z,72.30
2022-12-18T01:01:18.599Z,73.70
2022-12-18T01:02:18.649Z,71.30
2022-12-18T01:03:18.584Z,71.80
2022-12-18T01:04:18.482Z,70.70
2022-12-18T01:05:18.466Z,68.70
2022-12-18T01:06:18.458Z,66.30
2022-12-18T01:07:18.461Z,80.50
2022-12-18T01:08:18.444Z,72.30
2022-12-18T01:09:18.434Z,71.40
2022-12-18T01:10:18.436Z,70.60
2022-12-18T01:11:18.437Z,75.10
2022-12-18T01:12:18.408Z,73.90
2022-12-18T01:13:18.417Z,74.70
2022-12-18T01:14:18.396Z,66.90
2022-12-18T01:15:18.408Z,72.30
2022-12-18T01:16:18.457Z,70.80
2022-12-18T01:17:18.382Z,70.40
2022-12-18T01:18:18.371Z,74.90
2022-12-18T01:19:18.382Z,77.50
2022-12-18T01:20:18.366Z,70.40
2022-12-18T01:21:18.369Z,69.20
2022-12-18T01:22:18.353Z,73.10
2022-12-18T01:23:18.344Z,66.00
2022-12-18T01:24:18.335Z,71.40
2022-12-18T01:25:18.356Z,71.70
2022-12-18T01:26:18.312Z,72.40
2022-12-18T01:27:18.322Z,73.30
2022-12-18T01:28:18.327Z,67.90
2022-12-18T01:29:18.300Z,68.90
2022-12-18T01:30:18.315Z,67.40
2022-12-18T01:31:18.337Z,70.20
2022-12-18T01:32:18.292Z,69.40
2022-12-18T01:33:18.268Z,67.10
2022-12-18T01:34:18.273Z,71.10
2022-12-18T01:35:18.260Z,66.10
2022-12-18T01:36:18.254Z,60.80
2022-12-18T01:37:18.254Z,62.60
2022-12-18T01:38:18.261Z,66.30
2022-12-18T01:39:18.233Z,66.90
2022-12-18T01:40:19.230Z,66.30
2022-12-18T01:41:18.212Z,62.50
2022-12-18T01:42:18.210Z,61.60
2022-12-18T01:43:18.229Z,64.30
2022-12-18T01:44:18.205Z,66.60
2022-12-18T01:45:18.193Z,61.40
2022-12-18T01:46:18.241Z,60.20
2022-12-18T01:47:18.189Z,63.00
2022-12-18T01:48:18.197Z,61.70
2022-12-18T01:49:18.176Z,66.50
2022-12-18T01:50:18.161Z,65.90
2022-12-18T01:51:18.156Z,65.70
2022-12-18T01:52:18.157Z,59.50
2022-12-18T01:53:18.141Z,62.20
2022-12-18T01:54:18.159Z,66.90
2022-12-18T01:55:18.159Z,65.50
2022-12-18T01:56:18.118Z,65.00
2022-12-18T01:57:18.114Z,63.00
2022-12-18T01:58:18.124Z,67.50
2022-12-18T01:59:18.116Z,64.90
2022-12-18T02:00:18.087Z,63.20
2022-12-18T02:01:18.216Z,68.70
2022-12-18T02:02:18.198Z,64.90
2022-12-18T02:03:18.120Z,66.60
2022-12-18T02:04:18.075Z,64.80
2022-12-18T02:05:18.077Z,75.00
2022-12-18T02:06:18.051Z,70.60
2022-12-18T02:07:18.063Z,75.30
2022-12-18T02:08:18.038Z,71.70
2022-12-18T02:09:18.033Z,70.50
2022-12-18T02:10:18.044Z,71.60
2022-12-18T02:11:18.019Z,67.90
2022-12-18T02:12:18.002Z,73.10
2022-12-18T02:13:18.102Z,65.00
2022-12-18T02:14:18.004Z,64.20
2022-12-18T02:15:17.996Z,68.90
2022-12-18T02:16:18.050Z,72.60
2022-12-18T02:17:18.012Z,70.40
2022-12-18T02:18:17.975Z,80.80
2022-12-18T02:19:17.971Z,69.30
2022-12-18T02:20:17.979Z,66.50
2022-12-18T02:21:17.954Z,67.30
2022-12-18T02:22:18.510Z,67.30
2022-12-18T02:23:17.936Z,69.30
2022-12-18T02:24:17.958Z,63.20
2022-12-18T02:25:17.959Z,62.90
2022-12-18T02:26:17.979Z,64.40
2022-12-18T02:27:17.919Z,63.40
2022-12-18T02:28:17.934Z,60.60
2022-12-18T02:29:18.002Z,60.00
2022-12-18T02:30:17.933Z,63.00
2022-12-18T02:31:17.968Z,59.00
2022-12-18T02:32:17.899Z,63.90
2022-12-18T02:33:17.891Z,62.80
2022-12-18T02:34:17.888Z,63.70
2022-12-18T02:35:17.891Z,57.60
2022-12-18T02:36:17.887Z,65.40
2022-12-18T02:37:17.876Z,57.40
2022-12-18T02:38:17.859Z,59.60
2022-12-18T02:39:17.854Z,55.30
2022-12-18T02:40:17.863Z,61.90
2022-12-18T02:41:17.867Z,65.40
2022-12-18T02:42:17.840Z,60.00
2022-12-18T02:43:17.849Z,65.00
2022-12-18T02:44:17.828Z,61.40
2022-12-18T02:45:17.912Z,64.70
2022-12-18T02:46:17.902Z,66.20
2022-12-18T02:47:17.807Z,65.60
2022-12-18T02:48:17.817Z,68.70
2022-12-18T02:49:17.794Z,65.70
2022-12-18T02:50:17.791Z,68.00
2022-12-18T02:51:17.808Z,70.60
2022-12-18T02:52:17.796Z,65.90
2022-12-18T02:53:17.780Z,69.80
2022-12-18T02:54:17.784Z,73.90
2022-12-18T02:55:17.773Z,69.70
2022-12-18T02:56:17.766Z,66.70
2022-12-18T02:57:17.794Z,69.10
2022-12-18T02:58:17.739Z,67.90
2022-12-18T02:59:17.745Z,66.80
2022-12-18T03:00:17.729Z,65.00
2022-12-18T03:01:17.934Z,70.00
2022-12-18T03:02:18.060Z,67.00
2022-12-18T03:03:17.804Z,68.60
2022-12-18T03:04:17.717Z,65.10
2022-12-18T03:05:17.723Z,64.40
2022-12-18T03:06:17.708Z,60.90
2022-12-18T03:07:17.720Z,65.40
2022-12-18T03:08:17.713Z,62.00
2022-12-18T03:09:17.691Z,65.10
2022-12-18T03:10:17.687Z,64.90
2022-12-18T03:11:17.692Z,66.70
2022-12-18T03:12:17.694Z,66.10
2022-12-18T03:13:17.661Z,71.80
2022-12-18T03:14:17.672Z,65.50
2022-12-18T03:15:18.140Z,66.70
2022-12-18T03:16:18.679Z,62.50
2022-12-18T03:17:17.745Z,64.80
2022-12-18T03:18:17.644Z,60.90
2022-12-18T03:19:17.939Z,59.30
2022-12-18T03:20:17.637Z,58.70
2022-12-18T03:21:17.615Z,54.80
2022-12-18T03:22:17.616Z,55.60
2022-12-18T03:23:17.627Z,56.20
2022-12-18T03:24:17.615Z,54.70
2022-12-18T03:25:17.613Z,58.00
2022-12-18T03:26:17.611Z,57.60
2022-12-18T03:27:17.590Z,62.30
2022-12-18T03:28:17.590Z,64.40
2022-12-18T03:29:17.591Z,63.20
2022-12-18T03:30:17.584Z,54.20
2022-12-18T03:31:17.638Z,56.40
2022-12-18T03:32:17.573Z,53.50
2022-12-18T03:33:17.673Z,52.50
2022-12-18T03:34:17.548Z,48.70
2022-12-18T03:35:17.566Z,45.70
2022-12-18T03:36:17.582Z,48.60
2022-12-18T03:37:17.541Z,45.20
2022-12-18T03:38:18.375Z,46.40
2022-12-18T03:39:17.529Z,46.70
2022-12-18T03:40:17.540Z,45.40
2022-12-18T03:41:17.534Z,51.10
2022-12-18T03:42:17.519Z,48.10
2022-12-18T03:43:17.522Z,50.90
2022-12-18T03:44:17.523Z,52.50
2022-12-18T03:45:17.503Z,50.70
2022-12-18T03:46:17.604Z,49.10
2022-12-18T03:47:17.505Z,48.20
2022-12-18T03:48:17.512Z,51.20
2022-12-18T03:49:22.963Z,49.70
2022-12-18T03:50:24.444Z,46.50
2022-12-18T03:51:18.562Z,44.90
2022-12-18T03:52:17.475Z,46.60
2022-12-18T03:53:17.495Z,48.30
2022-12-18T03:54:17.476Z,45.90
2022-12-18T03:55:17.462Z,47.30
2022-12-18T03:56:17.473Z,44.30
2022-12-18T03:57:17.459Z,48.30
2022-12-18T03:58:17.477Z,45.40
2022-12-18T03:59:17.463Z,51.00
2022-12-18T04:00:17.440Z,47.30
2022-12-18T04:01:17.569Z,48.30
2022-12-18T04:02:17.635Z,51.00
2022-12-18T04:03:17.501Z,56.90
2022-12-18T04:04:17.474Z,48.80
2022-12-18T04:05:17.438Z,47.40
2022-12-18T04:06:17.466Z,47.00
2022-12-18T04:07:17.503Z,48.60
2022-12-18T04:08:43.846Z,53.40
2022-12-18T04:09:17.404Z,51.30
2022-12-18T04:10:17.398Z,51.50
2022-12-18T04:11:17.398Z,50.70
2022-12-18T04:12:17.398Z,52.90
2022-12-18T04:13:17.394Z,53.10
2022-12-18T04:14:18.179Z,53.00
2022-12-18T04:15:18.391Z,48.70
2022-12-18T04:16:17.422Z,48.40
2022-12-18T04:17:17.379Z,47.70
2022-12-18T04:18:17.363Z,53.30
2022-12-18T04:19:17.378Z,62.10
2022-12-18T04:20:17.372Z,65.50
2022-12-18T04:21:17.350Z,75.60
2022-12-18T04:22:17.354Z,64.00
2022-12-18T04:23:17.437Z,58.10
2022-12-18T04:24:17.345Z,69.40
2022-12-18T04:25:17.325Z,76.50
2022-12-18T04:26:17.334Z,73.20
2022-12-18T04:27:17.339Z,81.40
2022-12-18T04:28:17.330Z,75.80
2022-12-18T04:29:17.318Z,64.30
2022-12-18T04:30:17.320Z,54.60
2022-12-18T04:31:17.348Z,57.10
2022-12-18T04:32:17.310Z,59.30
2022-12-18T04:33:17.320Z,57.40
2022-12-18T04:34:17.294Z,52.00
2022-12-18T04:35:17.303Z,51.10
2022-12-18T04:36:17.324Z,51.10
2022-12-18T04:37:17.300Z,51.50
2022-12-18T04:38:17.280Z,53.20
2022-12-18T04:39:17.381Z,53.70
2022-12-18T04:40:17.275Z,50.40
2022-12-18T04:41:17.259Z,52.40
2022-12-18T04:42:17.260Z,50.90
2022-12-18T04:43:17.373Z,52.20
2022-12-18T04:44:17.251Z,49.90
2022-12-18T04:45:17.268Z,51.20
2022-12-18T04:46:17.332Z,49.80
2022-12-18T04:47:17.244Z,48.70
2022-12-18T04:48:17.248Z,50.30
2022-12-18T04:49:17.227Z,48.00
2022-12-18T04:50:17.252Z,48.20
2022-12-18T04:51:18.989Z,50.50
2022-12-18T04:52:18.228Z,48.90
2022-12-18T04:53:17.222Z,51.10
2022-12-18T04:54:17.215Z,60.30
2022-12-18T04:55:17.304Z,49.20
2022-12-18T04:56:17.230Z,52.60
2022-12-18T04:57:17.226Z,52.60
2022-12-18T04:58:17.212Z,51.70
2022-12-18T04:59:17.190Z,46.90
2022-12-18T05:00:17.202Z,53.10
2022-12-18T05:01:17.308Z,51.80
2022-12-18T05:02:17.280Z,50.90
2022-12-18T05:03:17.242Z,49.80
2022-12-18T05:04:17.226Z,48.30
2022-12-18T05:05:17.177Z,48.90
2022-12-18T05:06:17.169Z,51.80
2022-12-18T05:07:17.178Z,47.70
2022-12-18T05:08:17.166Z,53.90
2022-12-18T05:09:17.165Z,49.90
2022-12-18T05:10:17.154Z,49.10
2022-12-18T05:11:17.236Z,48.80
2022-12-18T05:12:17.169Z,50.10
2022-12-18T05:13:18.010Z,50.90
2022-12-18T05:14:17.137Z,49.80
2022-12-18T05:15:17.150Z,47.90
2022-12-18T05:16:17.337Z,53.30
2022-12-18T05:17:17.153Z,49.60
2022-12-18T05:18:17.121Z,47.20
2022-12-18T05:19:17.116Z,49.50
2022-12-18T05:20:17.132Z,50.90
2022-12-18T05:21:17.117Z,50.40
2022-12-18T05:22:17.115Z,46.20
2022-12-18T05:23:17.116Z,46.60
2022-12-18T05:24:17.105Z,48.20
2022-12-18T05:25:17.095Z,48.20
2022-12-18T05:26:17.087Z,44.20
2022-12-18T05:27:17.178Z,46.90
2022-12-18T05:28:17.107Z,49.70
2022-12-18T05:29:17.131Z,46.90
2022-12-18T05:30:17.062Z,39.20
2022-12-18T05:31:17.142Z,41.10
2022-12-18T05:32:17.068Z,45.50
2022-12-18T05:33:17.087Z,43.10
2022-12-18T05:34:17.055Z,47.30
2022-12-18T05:35:17.068Z,43.70
2022-12-18T05:36:17.070Z,50.30
2022-12-18T05:37:17.028Z,52.40
2022-12-18T05:38:17.124Z,52.60
2022-12-18T05:39:17.128Z,49.80
2022-12-18T05:40:17.030Z,52.50
2022-12-18T05:41:17.027Z,55.00
2022-12-18T05:42:17.019Z,54.20
2022-12-18T05:43:21.177Z,58.80
2022-12-18T05:44:18.023Z,54.90
2022-12-18T05:45:17.023Z,53.00
2022-12-18T05:46:17.089Z,53.00
2022-12-18T05:47:17.003Z,56.40
2022-12-18T05:48:17.004Z,50.40
2022-12-18T05:49:17.108Z,51.80
2022-12-18T05:50:17.004Z,56.10
2022-12-18T05:51:16.988Z,52.50
2022-12-18T05:52:16.979Z,52.20
2022-12-18T05:53:16.971Z,54.20
2022-12-18T05:54:17.015Z,54.30
2022-12-18T05:55:16.983Z,51.70
2022-12-18T05:56:16.981Z,51.90
2022-12-18T05:57:16.966Z,71.00
2022-12-18T05:58:16.947Z,83.60
2022-12-18T05:59:17.062Z,68.20
2022-12-18T06:00:16.969Z,66.20
2022-12-18T06:01:16.998Z,70.80
2022-12-18T06:02:17.017Z,68.10
2022-12-18T06:03:17.061Z,58.10
2022-12-18T06:04:17.065Z,52.30
2022-12-18T06:05:16.931Z,55.40
2022-12-18T06:06:16.918Z,54.20
2022-12-18T06:07:16.923Z,52.70
2022-12-18T06:08:16.903Z,55.70
2022-12-18T06:09:16.935Z,51.40
2022-12-18T06:10:16.898Z,54.30
2022-12-18T06:11:16.901Z,51.60
2022-12-18T06:12:16.906Z,52.40
2022-12-18T06:13:16.903Z,52.20
2022-12-18T06:14:16.877Z,52.30
2022-12-18T06:15:17.976Z,52.60
2022-12-18T06:16:16.998Z,52.80
2022-12-18T06:17:16.880Z,56.10
2022-12-18T06:18:16.861Z,52.80
2022-12-18T06:19:16.868Z,51.80
2022-12-18T06:20:16.900Z,53.00
2022-12-18T06:21:16.840Z,53.30
2022-12-18T06:22:16.852Z,51.50
2022-12-18T06:23:16.856Z,50.70
2022-12-18T06:24:16.841Z,54.10
2022-12-18T06:25:16.855Z,53.70
2022-12-18T06:26:17.848Z,51.80
2022-12-18T06:27:16.826Z,53.20
2022-12-18T06:28:16.828Z,52.90
2022-12-18T06:29:16.844Z,53.90
2022-12-18T06:30:16.817Z,54.60
2022-12-18T06:31:17.006Z,62.80
2022-12-18T06:32:16.811Z,88.40
2022-12-18T06:33:16.799Z,97.30
2022-12-18T06:34:16.803Z,92.70
2022-12-18T06:35:16.811Z,99.30
2022-12-18T06:36:16.799Z,99.70
2022-12-18T06:37:17.350Z,72.70
2022-12-18T06:38:16.789Z,61.70
2022-12-18T06:39:16.783Z,56.10
2022-12-18T06:40:16.783Z,54.60
2022-12-18T06:41:16.799Z,57.30
2022-12-18T06:42:16.758Z,65.80
2022-12-18T06:43:17.792Z,65.90
2022-12-18T06:44:16.760Z,67.90
2022-12-18T06:45:16.769Z,55.20
2022-12-18T06:46:16.827Z,55.50
2022-12-18T06:47:16.873Z,53.40
2022-12-18T06:48:16.763Z,55.10
2022-12-18T06:49:16.753Z,51.90
2022-12-18T06:50:16.748Z,49.30
2022-12-18T06:51:16.724Z,54.70
2022-12-18T06:52:16.727Z,50.90
2022-12-18T06:53:16.745Z,52.70
2022-12-18T06:54:16.727Z,52.20
2022-12-18T06:55:16.723Z,49.30
2022-12-18T06:56:16.708Z,53.30
2022-12-18T06:57:16.700Z,50.30
2022-12-18T06:58:16.699Z,52.90
2022-12-18T06:59:16.707Z,49.40
2022-12-18T07:00:16.699Z,52.50
2022-12-18T07:01:16.830Z,51.20
2022-12-18T07:02:16.776Z,49.90
2022-12-18T07:03:16.777Z,47.80
2022-12-18T07:04:16.681Z,49.20
2022-12-18T07:05:16.678Z,46.30
2022-12-18T07:06:16.671Z,44.70
2022-12-18T07:07:16.656Z,46.90
2022-12-18T07:08:16.697Z,51.30
2022-12-18T07:09:16.652Z,46.60
2022-12-18T07:10:16.645Z,52.90
2022-12-18T07:11:16.671Z,48.30
2022-12-18T07:12:16.656Z,50.60
2022-12-18T07:13:16.646Z,50.40
2022-12-18T07:14:16.628Z,51.70
2022-12-18T07:15:16.631Z,48.30
2022-12-18T07:16:23.951Z,47.20
2022-12-18T07:17:18.615Z,47.60
2022-12-18T07:18:16.631Z,47.10
2022-12-18T07:19:16.702Z,50.90
2022-12-18T07:20:16.706Z,51.90
2022-12-18T07:21:16.613Z,53.50
2022-12-18T07:22:16.620Z,52.30
2022-12-18T07:23:17.477Z,52.60
2022-12-18T07:24:16.589Z,65.80
2022-12-18T07:25:16.612Z,81.20
2022-12-18T07:26:16.612Z,87.40
2022-12-18T07:27:16.600Z,64.20
2022-12-18T07:28:17.630Z,53.30
2022-12-18T07:29:17.556Z,60.00
2022-12-18T07:30:16.552Z,58.10
2022-12-18T07:31:16.655Z,55.80
2022-12-18T07:32:16.565Z,53.20
2022-12-18T07:33:16.549Z,53.40
2022-12-18T07:34:16.536Z,58.70
2022-12-18T07:35:19.378Z,57.50
2022-12-18T07:36:18.919Z,59.60
2022-12-18T07:37:16.533Z,53.70
2022-12-18T07:38:16.552Z,60.90
2022-12-18T07:39:16.516Z,60.10
2022-12-18T07:40:16.510Z,67.40
2022-12-18T07:41:16.515Z,65.70
2022-12-18T07:42:16.524Z,74.20
2022-12-18T07:43:16.505Z,76.10
2022-12-18T07:44:16.503Z,70.40
2022-12-18T07:45:16.487Z,60.20
2022-12-18T07:46:16.529Z,62.20
2022-12-18T07:47:16.487Z,64.40
2022-12-18T07:48:16.505Z,58.70
2022-12-18T07:49:16.470Z,62.10
2022-12-18T07:50:16.488Z,60.10
2022-12-18T07:51:16.561Z,60.80
2022-12-18T07:52:19.308Z,64.70
2022-12-18T07:53:17.446Z,67.50
2022-12-18T07:54:16.443Z,57.80
2022-12-18T07:55:16.457Z,58.60
2022-12-18T07:56:31.883Z,59.20
2022-12-18T07:57:48.442Z,60.50
2022-12-18T07:58:18.441Z,61.40
2022-12-18T07:59:16.480Z,60.90
2022-12-18T08:00:16.435Z,61.80
2022-12-18T08:01:16.504Z,61.30
2022-12-18T08:02:16.553Z,66.70
2022-12-18T08:03:16.480Z,67.80
2022-12-18T08:04:16.416Z,58.20
2022-12-18T08:05:16.405Z,64.40
2022-12-18T08:06:16.410Z,56.40
2022-12-18T08:07:16.484Z,57.90
2022-12-18T08:08:16.397Z,57.10
2022-12-18T08:09:16.395Z,60.50
2022-12-18T08:10:16.407Z,59.20
2022-12-18T08:11:16.386Z,54.50
2022-12-18T08:12:16.419Z,56.10
2022-12-18T08:13:16.423Z,59.70
2022-12-18T08:14:16.363Z,54.90
2022-12-18T08:15:16.361Z,59.70
2022-12-18T08:16:16.412Z,56.00
2022-12-18T08:17:16.386Z,58.30
2022-12-18T08:18:16.354Z,64.00
2022-12-18T08:19:16.341Z,58.30
2022-12-18T08:20:16.345Z,58.10
2022-12-18T08:21:16.370Z,55.80
2022-12-18T08:22:16.329Z,60.60
2022-12-18T08:23:16.450Z,66.60
2022-12-18T08:24:16.333Z,59.90
2022-12-18T08:25:16.324Z,62.30
2022-12-18T08:26:16.316Z,83.90
2022-12-18T08:27:31.742Z,101.10
2022-12-18T08:28:18.326Z,102.30
2022-12-18T08:29:21.436Z,109.00
2022-12-18T08:30:17.291Z,102.70
2022-12-18T08:31:16.340Z,110.90
2022-12-18T08:32:16.322Z,109.20
2022-12-18T08:33:16.286Z,128.30
2022-12-18T08:34:16.330Z,173.40
2022-12-18T08:35:18.700Z,214.90
2022-12-18T08:36:17.279Z,222.60
2022-12-18T08:37:16.272Z,214.10
2022-12-18T08:38:16.299Z,201.90
2022-12-18T08:39:16.367Z,198.10
2022-12-18T08:40:16.279Z,201.70
2022-12-18T08:41:16.268Z,203.90
2022-12-18T08:42:16.263Z,194.00
2022-12-18T08:43:16.243Z,183.20
2022-12-18T08:44:16.276Z,191.70
2022-12-18T08:45:16.256Z,200.50
2022-12-18T08:46:16.318Z,202.10
2022-12-18T08:47:16.250Z,193.50
2022-12-18T08:48:20.681Z,197.90
2022-12-18T08:49:18.231Z,200.90
2022-12-18T08:50:16.216Z,181.80
2022-12-18T08:51:16.213Z,167.90
2022-12-18T08:52:16.227Z,160.00
2022-12-18T08:53:16.208Z,157.70
2022-12-18T08:54:16.212Z,163.70
2022-12-18T08:55:16.286Z,162.60
2022-12-18T08:56:16.211Z,162.00
2022-12-18T08:57:16.183Z,161.40
2022-12-18T08:58:16.192Z,165.60
2022-12-18T08:59:19.739Z,157.70
2022-12-18T09:00:17.198Z,157.70
2022-12-18T09:01:16.324Z,149.00
2022-12-18T09:02:16.375Z,145.90
2022-12-18T09:03:16.247Z,149.30
2022-12-18T09:04:16.159Z,152.40
2022-12-18T09:05:16.162Z,162.20
2022-12-18T09:06:16.174Z,164.00
2022-12-18T09:07:16.191Z,179.20
2022-12-18T09:08:16.168Z,182.70
2022-12-18T09:09:16.159Z,183.70
2022-12-18T09:10:16.135Z,155.90
2022-12-18T09:11:16.242Z,108.30
2022-12-18T09:12:16.137Z,99.10
2022-12-18T09:13:16.158Z,79.20
2022-12-18T09:14:16.173Z,68.10
2022-12-18T09:15:16.115Z,70.10
2022-12-18T09:16:16.111Z,90.70
2022-12-18T09:17:16.162Z,78.30
2022-12-18T09:18:16.095Z,84.80
2022-12-18T09:19:16.098Z,96.00
2022-12-18T09:20:16.098Z,100.00
2022-12-18T09:21:16.100Z,122.00
2022-12-18T09:22:16.082Z,127.70
2022-12-18T09:23:16.080Z,129.90
2022-12-18T09:24:16.113Z,107.50
2022-12-18T09:25:16.063Z,123.50
2022-12-18T09:26:16.074Z,120.70
2022-12-18T09:27:16.157Z,127.40
2022-12-18T09:28:16.065Z,121.50
2022-12-18T09:29:16.378Z,121.40
2022-12-18T09:30:16.033Z,114.30
2022-12-18T09:31:16.145Z,112.90
2022-12-18T09:32:21.980Z,102.00
2022-12-18T09:33:18.029Z,92.80
2022-12-18T09:34:16.017Z,89.60
2022-12-18T09:35:16.021Z,77.60
2022-12-18T09:36:16.031Z,67.00
2022-12-18T09:37:16.012Z,63.60
2022-12-18T09:38:16.002Z,62.60
2022-12-18T09:39:15.966Z,68.70
2022-12-18T09:40:15.967Z,69.30
2022-12-18T09:41:15.970Z,62.20
2022-12-18T09:42:15.960Z,64.20
2022-12-18T09:43:16.056Z,59.90
2022-12-18T09:44:15.969Z,58.20
2022-12-18T09:45:16.033Z,56.90
2022-12-18T09:46:15.993Z,60.50
2022-12-18T09:47:15.926Z,56.80
2022-12-18T09:48:15.949Z,53.70
2022-12-18T09:49:15.914Z,53.70
2022-12-18T09:50:17.537Z,57.80
2022-12-18T09:51:16.922Z,61.40
2022-12-18T09:52:15.907Z,62.20
2022-12-18T09:53:15.914Z,63.30
2022-12-18T09:54:15.882Z,66.00
2022-12-18T09:55:15.866Z,63.50
2022-12-18T09:56:15.859Z,68.40
2022-12-18T09:57:15.864Z,65.10
2022-12-18T09:58:15.867Z,55.90
2022-12-18T09:59:15.973Z,55.70
2022-12-18T10:00:15.843Z,54.00
2022-12-18T10:01:15.909Z,50.00
2022-12-18T10:02:15.926Z,53.10
2022-12-18T10:03:15.905Z,49.80
2022-12-18T10:04:15.861Z,56.60
2022-12-18T10:05:15.816Z,51.90
2022-12-18T10:06:15.813Z,52.20
2022-12-18T10:07:15.795Z,58.90
2022-12-18T10:08:15.788Z,57.10
2022-12-18T10:09:41.775Z,61.70
2022-12-18T10:10:15.799Z,54.70
2022-12-18T10:11:15.776Z,52.60
2022-12-18T10:12:15.784Z,50.90
2022-12-18T10:13:15.767Z,50.20
2022-12-18T10:14:15.788Z,54.00
2022-12-18T10:15:15.876Z,48.90
2022-12-18T10:16:15.801Z,51.00
2022-12-18T10:17:15.753Z,49.70
2022-12-18T10:18:20.278Z,51.70
2022-12-18T10:19:17.771Z,53.30
2022-12-18T10:20:15.738Z,49.30
2022-12-18T10:21:15.731Z,54.10
2022-12-18T10:22:15.723Z,51.30
2022-12-18T10:23:15.743Z,50.00
2022-12-18T10:24:15.723Z,48.50
2022-12-18T10:25:15.708Z,51.20
2022-12-18T10:26:15.741Z,48.10
2022-12-18T10:27:16.699Z,50.50
2022-12-18T10:28:15.676Z,50.40
2022-12-18T10:29:15.674Z,52.50
2022-12-18T10:30:15.698Z,48.30
2022-12-18T10:31:15.878Z,49.50
2022-12-18T10:32:15.702Z,50.10
2022-12-18T10:33:15.662Z,52.50
2022-12-18T10:34:15.710Z,51.30
2022-12-18T10:35:15.694Z,50.00
2022-12-18T10:36:15.701Z,50.70
2022-12-18T10:37:15.640Z,49.60
2022-12-18T10:38:15.632Z,52.40
2022-12-18T10:39:15.625Z,46.00
2022-12-18T10:40:21.935Z,55.60
2022-12-18T10:41:17.660Z,54.90
2022-12-18T10:42:15.635Z,56.50
2022-12-18T10:43:15.610Z,56.80
2022-12-18T10:44:15.590Z,60.70
2022-12-18T10:45:16.644Z,60.40
2022-12-18T10:46:15.665Z,59.60
2022-12-18T10:47:15.671Z,59.50
2022-12-18T10:48:15.565Z,55.30
2022-12-18T10:49:15.553Z,55.30
2022-12-18T10:50:15.538Z,57.90
2022-12-18T10:51:15.563Z,54.30
2022-12-18T10:52:15.586Z,54.20
2022-12-18T10:53:15.551Z,59.20
2022-12-18T10:54:15.569Z,58.20
2022-12-18T10:55:15.571Z,58.00
2022-12-18T10:56:15.510Z,58.40
2022-12-18T10:57:15.517Z,58.40
2022-12-18T10:58:15.537Z,59.80
2022-12-18T10:59:15.504Z,58.70
2022-12-18T11:00:15.489Z,56.50
2022-12-18T11:01:15.734Z,57.60
2022-12-18T11:02:16.589Z,59.40
2022-12-18T11:03:15.704Z,62.60
2022-12-18T11:04:15.475Z,56.50
2022-12-18T11:05:15.484Z,61.60
2022-12-18T11:06:15.479Z,56.10
2022-12-18T11:07:15.456Z,63.60
2022-12-18T11:08:15.477Z,56.80
2022-12-18T11:09:15.675Z,53.20
2022-12-18T11:10:16.555Z,49.40
2022-12-18T11:11:15.428Z,53.20
2022-12-18T11:12:15.484Z,54.20
2022-12-18T11:13:15.491Z,53.00
2022-12-18T11:14:15.422Z,53.90
2022-12-18T11:15:15.448Z,51.40
2022-12-18T11:16:15.451Z,52.50
2022-12-18T11:17:30.745Z,46.70
2022-12-18T11:18:17.498Z,50.00
2022-12-18T11:19:15.412Z,59.20
2022-12-18T11:20:15.402Z,119.80
2022-12-18T11:21:15.393Z,84.70
2022-12-18T11:22:15.398Z,75.20
2022-12-18T11:23:15.414Z,65.50
2022-12-18T11:24:15.426Z,55.80
2022-12-18T11:25:32.517Z,45.10
2022-12-18T11:26:17.346Z,46.50
2022-12-18T11:27:15.404Z,47.10
2022-12-18T11:28:15.330Z,41.30
2022-12-18T11:29:15.361Z,44.20
2022-12-18T11:30:15.372Z,44.70
2022-12-18T11:31:15.437Z,41.00
2022-12-18T11:32:15.314Z,38.60
2022-12-18T11:33:15.287Z,42.70
2022-12-18T11:34:30.911Z,40.50
2022-12-18T11:35:17.286Z,45.40
2022-12-18T11:36:15.304Z,39.30
2022-12-18T11:37:15.286Z,44.60
2022-12-18T11:38:15.264Z,43.90
2022-12-18T11:39:15.328Z,39.50
2022-12-18T11:40:15.291Z,42.70
2022-12-18T11:41:15.285Z,38.70
2022-12-18T11:42:15.258Z,39.80
2022-12-18T11:43:15.265Z,36.90
2022-12-18T11:44:15.245Z,43.20
2022-12-18T11:45:15.245Z,39.90
2022-12-18T11:46:19.508Z,36.70
2022-12-18T11:47:16.237Z,41.80
2022-12-18T11:48:15.223Z,42.80
2022-12-18T11:49:15.208Z,42.10
2022-12-18T11:50:15.410Z,43.60
2022-12-18T11:51:15.236Z,41.50
2022-12-18T11:52:15.219Z,41.90
2022-12-18T11:53:15.185Z,43.90
2022-12-18T11:54:15.184Z,40.60
2022-12-18T11:55:15.174Z,41.90
2022-12-18T11:56:15.171Z,41.60
2022-12-18T11:57:15.179Z,44.80
2022-12-18T11:58:15.162Z,44.20
2022-12-18T11:59:15.152Z,39.10
2022-12-18T12:00:15.215Z,41.40
2022-12-18T12:01:15.223Z,49.10
2022-12-18T12:02:15.381Z,56.80
2022-12-18T12:03:15.223Z,52.40
2022-12-18T12:04:15.149Z,56.60
2022-12-18T12:05:15.123Z,50.30
2022-12-18T12:06:15.223Z,45.30
2022-12-18T12:07:15.932Z,46.50
2022-12-18T12:08:15.108Z,45.10
2022-12-18T12:09:15.090Z,40.30
2022-12-18T12:10:15.150Z,45.70
2022-12-18T12:11:15.068Z,41.80
2022-12-18T12:12:15.080Z,41.10
2022-12-18T12:13:15.086Z,39.60
2022-12-18T12:14:15.068Z,42.00
2022-12-18T12:15:15.053Z,41.30
2022-12-18T12:16:15.095Z,43.10
2022-12-18T12:17:15.054Z,43.60
2022-12-18T12:18:15.064Z,42.50
2022-12-18T12:19:15.057Z,44.20
2022-12-18T12:20:15.055Z,42.60
2022-12-18T12:21:15.059Z,41.50
2022-12-18T12:22:15.114Z,41.30
2022-12-18T12:23:15.039Z,42.90
2022-12-18T12:24:15.006Z,46.80
2022-12-18T12:25:15.113Z,46.70
2022-12-18T12:26:14.992Z,42.20
2022-12-18T12:27:15.041Z,42.90
2022-12-18T12:28:15.019Z,42.30
2022-12-18T12:29:20.857Z,42.00
2022-12-18T12:30:16.977Z,43.20
2022-12-18T12:31:14.993Z,40.70
2022-12-18T12:32:14.983Z,41.80
2022-12-18T12:33:14.971Z,42.10
2022-12-18T12:34:14.976Z,44.50
2022-12-18T12:35:14.933Z,44.60
2022-12-18T12:36:14.925Z,42.20
2022-12-18T12:37:14.925Z,42.70
2022-12-18T12:38:15.006Z,43.70
2022-12-18T12:39:14.931Z,41.10
2022-12-18T12:40:48.347Z,43.30
2022-12-18T12:41:16.915Z,43.10
2022-12-18T12:42:14.915Z,47.70
2022-12-18T12:43:14.898Z,44.70
2022-12-18T12:44:14.934Z,45.30
2022-12-18T12:45:15.454Z,51.40
2022-12-18T12:46:14.905Z,48.90
2022-12-18T12:47:14.865Z,40.00
2022-12-18T12:48:14.874Z,49.40
2022-12-18T12:49:14.859Z,51.10
2022-12-18T12:50:14.875Z,55.60
2022-12-18T12:51:14.881Z,52.70